Time;durP1;ratioP1;P1;durP2;ratioP2;P2;SDS_P1;SDS_P2;PMS_P1;PMS_P2;Temp;Humidity;BMP_temperature;BMP_pressure;BME280_temperature;BME280_humidity;BME280_pressure;Samples;Min_cycle;Max_cycle;Signal;HPM_P1;HPM_P2
2022/06/09 00:00:20;;;;;;;0.95;0.90;;;;;;;17.35;82.36;95035.91;4979798;28;20196;-81
2022/06/09 00:02:52;;;;;;;1.95;0.80;;;;;;;17.39;81.12;95031.03;4980195;28;20254;-81
2022/06/09 00:05:19;;;;;;;0.80;0.80;;;;;;;17.37;81.12;95033.88;4979535;28;20684;-81
2022/06/09 00:07:47;;;;;;;1.02;0.90;;;;;;;17.44;81.15;95038.94;4979500;28;20362;-81
2022/06/09 00:10:18;;;;;;;1.15;0.70;;;;;;;17.45;81.16;95035.31;4980074;28;20299;-81
2022/06/09 00:12:45;;;;;;;1.35;0.80;;;;;;;17.47;81.59;95033.28;4980089;28;20267;-80
2022/06/09 00:15:14;;;;;;;1.55;0.90;;;;;;;17.50;80.63;95033.59;4979651;28;20224;-81
2022/06/09 00:17:40;;;;;;;0.90;0.73;;;;;;;17.52;81.18;95028.16;4978742;28;20315;-81
2022/06/09 00:20:10;;;;;;;0.93;0.88;;;;;;;17.55;81.30;95031.06;4979942;28;20196;-80
2022/06/09 00:22:36;;;;;;;1.10;0.90;;;;;;;17.51;82.23;95029.94;4979906;28;20235;-81
2022/06/09 00:25:03;;;;;;;1.30;0.90;;;;;;;17.54;81.32;95034.69;4980499;28;20332;-81
2022/06/09 00:27:30;;;;;;;1.10;0.90;;;;;;;17.52;81.03;95035.94;4981123;28;20200;-81
2022/06/09 00:29:56;;;;;;;2.17;0.95;;;;;;;17.52;81.13;95033.34;4980167;28;20192;-81
2022/06/09 00:32:22;;;;;;;1.00;0.90;;;;;;;17.50;81.09;95040.63;4979481;28;20228;-81
2022/06/09 00:34:51;;;;;;;1.48;0.93;;;;;;;17.48;81.70;95038.25;4981095;28;20862;-81
2022/06/09 00:37:19;;;;;;;2.22;1.00;;;;;;;17.48;82.01;95042.66;4980948;28;20204;-82
2022/06/09 00:39:45;;;;;;;2.05;0.93;;;;;;;17.50;82.81;95043.22;4979853;28;20700;-82
2022/06/09 00:42:11;;;;;;;1.17;0.85;;;;;;;17.32;82.76;95048.63;4979582;28;20231;-82
2022/06/09 00:44:39;;;;;;;1.38;0.90;;;;;;;17.38;82.71;95051.06;4980286;28;20204;-81
2022/06/09 00:47:09;;;;;;;3.90;1.10;;;;;;;17.39;83.26;95046.66;4979677;28;20223;-81
2022/06/09 00:49:44;;;;;;;1.20;1.10;;;;;;;17.38;83.18;95051.06;4979401;28;20224;-81
2022/06/09 00:52:14;;;;;;;1.50;1.10;;;;;;;17.37;82.67;95056.50;4978449;28;20243;-81
2022/06/09 00:54:44;;;;;;;1.55;1.20;;;;;;;17.38;83.82;95055.47;4979392;28;20223;-81
2022/06/09 00:57:14;;;;;;;2.55;1.30;;;;;;;17.31;83.75;95058.22;4980421;28;20203;-81
2022/06/09 00:59:44;;;;;;;3.30;1.20;;;;;;;17.38;83.44;95053.66;4980096;28;20204;-81
2022/06/09 01:02:16;;;;;;;1.95;1.25;;;;;;;17.30;83.73;95055.84;4979022;28;20232;-81
2022/06/09 01:04:43;;;;;;;5.32;1.40;;;;;;;17.30;83.48;95056.66;4980937;28;20207;-81
2022/06/09 01:07:12;;;;;;;4.18;1.10;;;;;;;17.29;83.78;95055.06;4979789;28;20717;-82
2022/06/09 01:09:38;;;;;;;1.20;1.10;;;;;;;17.37;84.57;95065.09;4980368;28;20356;-81
2022/06/09 01:15:03;;;;;;;1.45;1.30;;;;;;;17.22;85.54;95057.78;5116032;27;20566;-82
2022/06/09 01:17:40;;;;;;;1.90;1.20;;;;;;;17.27;84.86;95063.09;5115542;28;20257;-83
2022/06/09 01:20:21;;;;;;;3.17;1.48;;;;;;;17.30;84.73;95064.44;5105943;28;20199;-82
2022/06/09 01:23:28;;;;;;;1.55;1.17;;;;;;;17.25;85.01;95061.75;5076886;28;20267;-82
2022/06/09 01:26:14;;;;;;;4.30;1.48;;;;;;;17.23;85.09;95067.19;5070389;28;20196;-82
2022/06/09 01:29:05;;;;;;;1.63;1.30;;;;;;;17.11;84.70;95074.22;5054212;28;20228;-83
2022/06/09 01:31:42;;;;;;;2.63;1.33;;;;;;;17.20;85.29;95069.44;5070016;28;20205;-82
2022/06/09 01:34:16;;;;;;;1.50;1.30;;;;;;;17.25;85.71;95077.34;5074601;28;20274;-83
2022/06/09 01:36:49;;;;;;;1.42;1.23;;;;;;;17.19;84.96;95063.44;5067775;28;20244;-82
2022/06/09 01:39:16;;;;;;;2.15;1.10;;;;;;;17.18;85.24;95071.47;5054172;28;20506;-82
2022/06/09 01:41:47;;;;;;;1.40;1.30;;;;;;;17.20;85.07;95072.03;5072636;28;20196;-83
2022/06/09 01:44:13;;;;;;;2.00;1.50;;;;;;;17.22;85.50;95068.19;5074820;28;20260;-83
2022/06/09 01:46:42;;;;;;;1.40;1.30;;;;;;;17.20;86.98;95067.63;5067026;28;20197;-83
2022/06/09 01:49:14;;;;;;;2.35;1.50;;;;;;;17.21;85.81;95065.81;5055630;28;20213;-83
2022/06/09 01:51:43;;;;;;;2.03;1.40;;;;;;;17.21;85.72;95073.63;5054795;28;20194;-82
2022/06/09 01:54:16;;;;;;;2.85;1.50;;;;;;;17.22;85.97;95067.41;5082938;28;20227;-82
2022/06/09 01:56:48;;;;;;;2.00;1.80;;;;;;;17.13;86.59;95066.16;5077732;28;20224;-82
2022/06/09 01:59:19;;;;;;;2.17;1.55;;;;;;;17.10;86.37;95069.25;5073420;28;20316;-83
2022/06/09 02:01:53;;;;;;;1.83;1.60;;;;;;;17.12;86.58;95072.41;5073505;28;20198;-83
2022/06/09 02:04:24;;;;;;;1.65;1.45;;;;;;;17.14;86.15;95065.94;5085160;28;20245;-83
2022/06/09 02:06:52;;;;;;;2.97;1.60;;;;;;;17.13;86.42;95069.56;5082588;28;20205;-82
2022/06/09 02:09:20;;;;;;;2.33;1.55;;;;;;;17.12;86.22;95069.81;5074290;28;20217;-83
2022/06/09 02:11:49;;;;;;;1.60;1.50;;;;;;;17.12;86.07;95068.00;5083492;28;20218;-83
2022/06/09 02:14:17;;;;;;;2.05;1.60;;;;;;;17.12;87.13;95065.41;5081823;28;20221;-82
2022/06/09 02:16:44;;;;;;;3.78;1.40;;;;;;;17.12;86.64;95065.41;5083858;28;21046;-83
2022/06/09 02:19:12;;;;;;;1.63;1.50;;;;;;;17.15;86.84;95070.13;5093845;28;20236;-82
2022/06/09 02:21:39;;;;;;;2.50;1.73;;;;;;;17.10;86.75;95067.44;5084841;28;20208;-82
2022/06/09 02:24:06;;;;;;;2.22;1.65;;;;;;;17.11;86.42;95065.63;5072936;28;20224;-82
2022/06/09 02:26:36;;;;;;;2.95;1.70;;;;;;;17.08;86.50;95061.69;5067843;28;20197;-83
2022/06/09 02:29:03;;;;;;;1.30;1.20;;;;;;;17.09;87.18;95070.28;5076524;28;20218;-82
2022/06/09 02:31:29;;;;;;;1.75;1.40;;;;;;;17.11;86.90;95068.22;5075392;28;20231;-82
2022/06/09 02:33:56;;;;;;;3.38;1.67;;;;;;;17.11;86.61;95070.84;5079601;28;20224;-83
2022/06/09 02:36:24;;;;;;;2.42;1.63;;;;;;;17.12;86.81;95073.22;5074785;28;20247;-83
2022/06/09 02:38:51;;;;;;;2.80;1.55;;;;;;;17.12;86.34;95072.41;5061177;28;20238;-83
2022/06/09 02:41:18;;;;;;;2.22;1.55;;;;;;;17.09;87.07;95070.28;5066113;28;20189;-83
2022/06/09 02:43:45;;;;;;;1.70;1.60;;;;;;;17.09;86.57;95071.06;5079086;28;20841;-83
2022/06/09 02:46:12;;;;;;;1.90;1.50;;;;;;;17.09;85.67;95063.25;5070348;28;20634;-82
2022/06/09 02:48:40;;;;;;;2.00;1.60;;;;;;;17.08;85.78;95076.50;5079107;28;20221;-82
2022/06/09 02:51:18;;;;;;;1.60;1.50;;;;;;;17.08;85.26;95068.69;5075320;28;20198;-83
2022/06/09 02:53:46;;;;;;;1.50;1.40;;;;;;;17.04;86.20;95067.56;5071012;28;20229;-80
2022/06/09 02:56:12;;;;;;;2.47;1.80;;;;;;;17.09;85.48;95067.66;5072560;28;20220;-80
2022/06/09 02:58:42;;;;;;;2.13;1.33;;;;;;;17.06;85.54;95073.31;5076204;28;20217;-79
2022/06/09 03:01:09;;;;;;;1.77;1.50;;;;;;;17.03;86.40;95077.16;5073059;28;20618;-80
2022/06/09 03:03:35;;;;;;;1.70;1.60;;;;;;;16.98;86.36;95071.84;5081166;28;20251;-80
2022/06/09 03:06:01;;;;;;;1.73;1.52;;;;;;;16.93;86.52;95075.13;5071252;28;20246;-81
2022/06/09 03:08:28;;;;;;;1.25;1.15;;;;;;;16.96;86.07;95080.91;5086530;28;20221;-80
2022/06/09 03:10:56;;;;;;;2.20;1.60;;;;;;;16.99;86.21;95078.63;5084230;28;20200;-80
2022/06/09 03:13:22;;;;;;;3.65;1.70;;;;;;;17.03;86.06;95081.56;5065784;28;20228;-81
2022/06/09 03:15:50;;;;;;;1.67;1.40;;;;;;;17.06;85.46;95086.31;5084694;28;20193;-80
2022/06/09 03:18:17;;;;;;;2.20;1.50;;;;;;;17.10;84.59;95087.47;5066580;28;20656;-81
2022/06/09 03:20:43;;;;;;;1.50;1.40;;;;;;;17.08;85.02;95092.09;5084249;28;20205;-80
2022/06/09 03:23:09;;;;;;;1.52;1.40;;;;;;;17.08;84.61;95084.28;5086557;28;20281;-80
2022/06/09 03:25:36;;;;;;;2.28;1.58;;;;;;;17.07;85.33;95095.72;5069833;28;20232;-80
2022/06/09 03:28:04;;;;;;;1.65;1.48;;;;;;;17.09;84.54;95086.66;5086998;28;20228;-80
2022/06/09 03:30:31;;;;;;;1.45;1.35;;;;;;;17.11;84.57;95086.44;5075150;28;20219;-80
2022/06/09 03:32:57;;;;;;;3.03;1.80;;;;;;;17.14;84.10;95091.16;5083938;28;20236;-81
2022/06/09 03:35:24;;;;;;;2.30;1.60;;;;;;;17.12;84.25;95096.63;5073884;28;20220;-81
2022/06/09 03:37:50;;;;;;;4.88;1.83;;;;;;;17.08;83.78;95089.50;5084658;28;20220;-81
2022/06/09 03:40:20;;;;;;;3.08;1.50;;;;;;;17.07;83.90;95099.09;5084398;28;20196;-80
2022/06/09 03:42:47;;;;;;;2.75;1.50;;;;;;;17.06;83.89;95094.13;5085483;28;20232;-80
2022/06/09 03:45:14;;;;;;;2.83;1.70;;;;;;;17.07;83.51;95099.09;5074992;28;20189;-80
2022/06/09 03:47:41;;;;;;;3.55;1.75;;;;;;;17.07;83.48;95098.31;5065595;28;20248;-80
2022/06/09 03:50:14;;;;;;;2.28;1.77;;;;;;;16.93;86.45;95108.19;5078427;28;20201;-80
2022/06/09 03:52:40;;;;;;;1.50;1.40;;;;;;;16.95;84.95;95106.13;5084122;28;20273;-80
2022/06/09 03:55:07;;;;;;;1.83;1.40;;;;;;;16.99;84.72;95099.44;5071911;28;20634;-81
2022/06/09 03:57:33;;;;;;;2.53;1.60;;;;;;;16.93;85.99;95108.19;5081556;28;20196;-80
2022/06/09 04:00:00;;;;;;;4.20;1.50;;;;;;;17.02;84.75;95114.59;5072614;28;20221;-80
2022/06/09 04:02:30;;;;;;;2.55;1.30;;;;;;;17.09;83.72;95101.47;5065360;28;20244;-81
2022/06/09 04:04:56;;;;;;;1.75;1.25;;;;;;;17.09;84.09;95110.06;5065356;28;20197;-80
2022/06/09 04:07:23;;;;;;;1.50;1.40;;;;;;;17.14;83.76;95111.97;5071422;28;20189;-80
2022/06/09 04:09:49;;;;;;;1.98;1.50;;;;;;;17.12;83.78;95106.22;5066987;28;20193;-80
2022/06/09 04:12:16;;;;;;;2.10;1.48;;;;;;;17.13;84.06;95108.56;5075652;28;20603;-81
2022/06/09 04:14:42;;;;;;;1.77;1.30;;;;;;;17.12;84.37;95117.44;5083231;28;20224;-80
2022/06/09 04:17:10;;;;;;;1.45;1.35;;;;;;;17.11;83.60;95110.66;5083703;28;20193;-80
2022/06/09 04:19:38;;;;;;;3.95;1.70;;;;;;;17.19;83.86;95125.88;5065921;28;20248;-79
2022/06/09 04:22:05;;;;;;;3.40;1.75;;;;;;;17.26;84.45;95123.16;5074970;28;20235;-81
2022/06/09 04:24:32;;;;;;;2.60;1.52;;;;;;;17.38;86.68;95131.75;5077655;28;20260;-81
2022/06/09 04:26:58;;;;;;;2.13;1.40;;;;;;;17.45;83.66;95124.59;5077587;28;20219;-81
2022/06/09 04:29:25;;;;;;;2.13;1.55;;;;;;;17.54;86.93;95135.44;5076957;28;20228;-80
2022/06/09 04:31:51;;;;;;;1.85;1.33;;;;;;;17.55;82.94;95132.59;5078815;28;20506;-82
2022/06/09 04:34:18;;;;;;;3.20;1.58;;;;;;;17.51;82.60;95139.28;5082223;28;20220;-83
2022/06/09 04:36:46;;;;;;;1.65;1.50;;;;;;;17.44;82.59;95135.25;5080113;28;20204;-83
2022/06/09 04:39:12;;;;;;;4.05;1.60;;;;;;;17.45;82.46;95142.81;5074675;28;20224;-83
2022/06/09 04:41:40;;;;;;;1.98;1.30;;;;;;;17.40;82.91;95134.09;5066162;28;20254;-83
2022/06/09 04:44:07;;;;;;;1.55;1.30;;;;;;;17.33;82.71;95142.03;5079524;28;20221;-83
2022/06/09 04:46:34;;;;;;;1.73;1.45;;;;;;;17.27;83.51;95141.16;5060732;28;20284;-82
2022/06/09 04:49:01;;;;;;;2.53;1.48;;;;;;;17.25;83.05;95148.41;5063812;28;20295;-83
2022/06/09 04:51:27;;;;;;;1.48;1.38;;;;;;;17.30;82.32;95147.72;5076205;28;20196;-83
2022/06/09 04:53:55;;;;;;;1.40;1.30;;;;;;;17.34;83.16;95150.63;5074367;28;20225;-84
2022/06/09 04:56:22;;;;;;;1.45;1.27;;;;;;;17.40;82.70;95149.72;5077738;28;20235;-84
2022/06/09 04:58:50;;;;;;;1.58;1.40;;;;;;;17.45;81.45;95150.63;5078695;28;20877;-83
2022/06/09 05:01:19;;;;;;;2.35;1.60;;;;;;;17.49;81.35;95156.19;5057791;28;20201;-83
2022/06/09 05:03:45;;;;;;;2.90;1.40;;;;;;;17.48;82.48;95160.59;5056454;28;20233;-83
2022/06/09 05:06:12;;;;;;;1.50;1.40;;;;;;;17.42;82.14;95150.28;5058260;28;20634;-83
2022/06/09 05:08:40;;;;;;;4.07;1.40;;;;;;;17.47;81.33;95156.41;5057951;28;20275;-83
2022/06/09 05:11:08;;;;;;;2.15;1.40;;;;;;;17.55;81.72;95157.84;5057851;28;20204;-83
2022/06/09 05:13:35;;;;;;;1.75;1.40;;;;;;;17.56;82.39;95149.00;5056902;28;20229;-84
2022/06/09 05:16:01;;;;;;;1.48;1.38;;;;;;;17.53;81.87;95158.06;5057409;28;20221;-83
2022/06/09 05:18:29;;;;;;;1.95;1.40;;;;;;;17.60;81.25;95160.56;5057235;28;20222;-83
2022/06/09 05:20:57;;;;;;;1.65;1.55;;;;;;;17.58;82.66;95165.19;5057073;28;20569;-82
2022/06/09 05:23:24;;;;;;;1.85;1.38;;;;;;;17.57;82.40;95163.59;5056878;28;20241;-83
2022/06/09 05:25:52;;;;;;;1.70;1.60;;;;;;;17.53;82.40;95159.88;5057855;28;20247;-83
2022/06/09 05:28:22;;;;;;;1.40;1.30;;;;;;;17.52;82.57;95168.72;5056955;28;20615;-84
2022/06/09 05:30:49;;;;;;;2.90;1.30;;;;;;;17.59;82.60;95171.97;5064897;28;20204;-83
2022/06/09 05:33:15;;;;;;;3.65;1.80;;;;;;;17.53;83.14;95171.09;5077064;28;20228;-83
2022/06/09 05:35:42;;;;;;;3.75;1.98;;;;;;;17.46;82.76;95180.06;5076916;28;20273;-83
2022/06/09 05:46:26;;;;;;;8.90;8.00;;;;;;;17.37;83.46;95194.41;5077502;28;20203;-83
2022/06/09 05:48:52;;;;;;;24.35;21.83;;;;;;;17.41;83.76;95193.75;5076207;28;20286;-84
2022/06/09 05:51:19;;;;;;;5.75;5.22;;;;;;;17.44;82.12;95195.91;5075610;28;20254;-83
2022/06/09 05:53:46;;;;;;;2.20;1.98;;;;;;;17.44;83.23;95197.72;5077061;28;20796;-84
2022/06/09 05:56:13;;;;;;;1.40;1.30;;;;;;;17.53;84.34;95198.91;5076929;28;20229;-83
2022/06/09 05:58:41;;;;;;;1.55;1.45;;;;;;;17.40;82.02;95202.56;5077111;28;20225;-83
2022/06/09 06:01:11;;;;;;;2.10;1.58;;;;;;;17.42;84.01;95204.94;5078861;28;20242;-83
2022/06/09 06:03:39;;;;;;;1.85;1.60;;;;;;;17.35;85.14;95206.88;5079859;28;20793;-84
2022/06/09 06:08:50;;;;;;;1.90;1.50;;;;;;;17.24;85.93;95219.66;5080074;28;20266;-84
2022/06/09 06:11:16;;;;;;;2.65;1.50;;;;;;;17.36;86.54;95219.66;5060471;28;20206;-83
2022/06/09 06:13:45;;;;;;;1.40;1.30;;;;;;;17.35;86.68;95212.88;5076581;28;20233;-83
2022/06/09 06:16:12;;;;;;;2.25;1.48;;;;;;;17.31;87.71;95221.38;5078424;28;20220;-83
2022/06/09 06:18:41;;;;;;;1.92;1.50;;;;;;;17.35;87.09;95222.47;5078814;28;20252;-82
2022/06/09 06:21:08;;;;;;;1.65;1.15;;;;;;;17.37;85.65;95215.25;5078334;28;20266;-83
2022/06/09 06:23:35;;;;;;;1.58;1.48;;;;;;;17.26;86.29;95220.25;5077710;28;20232;-83
2022/06/09 06:26:01;;;;;;;5.55;5.05;;;;;;;17.25;85.82;95230.88;5078262;28;20208;-83
2022/06/09 06:28:28;;;;;;;6.60;6.00;;;;;;;17.34;84.50;95232.09;5078306;28;20216;-82
2022/06/09 06:30:55;;;;;;;11.85;9.02;;;;;;;17.50;83.32;95234.03;5076421;28;20663;-82
2022/06/09 06:33:22;;;;;;;1.90;1.70;;;;;;;17.49;85.07;95234.25;5078668;28;20274;-82
2022/06/09 06:35:50;;;;;;;3.17;2.70;;;;;;;17.56;84.85;95237.53;5077715;28;20225;-82
2022/06/09 06:38:16;;;;;;;3.33;1.70;;;;;;;17.59;84.56;95237.06;5078104;28;20223;-82
2022/06/09 06:40:43;;;;;;;1.83;1.30;;;;;;;17.79;83.48;95244.53;5077186;28;20621;-83
2022/06/09 06:43:10;;;;;;;1.77;1.40;;;;;;;17.67;81.60;95249.78;5078300;28;20305;-81
2022/06/09 06:45:36;;;;;;;2.85;1.65;;;;;;;17.75;82.82;95246.81;5077531;28;20193;-82
2022/06/09 06:48:05;;;;;;;1.50;1.35;;;;;;;17.85;82.00;95252.25;5077119;28;20609;-83
2022/06/09 06:50:32;;;;;;;2.15;1.27;;;;;;;18.00;81.10;95249.13;5065113;28;20209;-81
2022/06/09 06:52:58;;;;;;;1.30;1.10;;;;;;;18.09;78.39;95245.13;5069569;28;20354;-83
2022/06/09 06:55:25;;;;;;;1.08;1.00;;;;;;;18.21;77.65;95258.16;5079546;28;20231;-83
2022/06/09 06:57:53;;;;;;;1.45;0.95;;;;;;;18.30;77.96;95252.31;5080163;28;20845;-82
2022/06/09 07:00:22;;;;;;;2.05;1.23;;;;;;;18.36;78.15;95255.03;5078913;28;20204;-81
2022/06/09 07:02:49;;;;;;;1.13;1.00;;;;;;;18.30;77.74;95254.13;5078964;28;20232;-82
2022/06/09 07:05:20;;;;;;;3.28;1.20;;;;;;;18.29;76.39;95262.97;5079336;28;20200;-82
2022/06/09 07:07:46;;;;;;;3.72;1.20;;;;;;;18.36;78.34;95255.03;5079509;28;20217;-83
2022/06/09 07:10:14;;;;;;;1.13;0.88;;;;;;;18.21;77.56;95260.75;5078820;28;20205;-82
2022/06/09 07:12:41;;;;;;;0.90;0.90;;;;;;;18.26;77.03;95253.84;5077410;28;20294;-81
2022/06/09 07:15:11;;;;;;;1.30;1.20;;;;;;;18.18;78.54;95254.19;5078730;28;20237;-82
2022/06/09 07:17:38;;;;;;;2.90;1.00;;;;;;;18.22;77.75;95262.34;5079441;28;20204;-81
2022/06/09 07:20:05;;;;;;;2.20;1.10;;;;;;;18.33;77.56;95256.28;5078100;28;20201;-82
2022/06/09 07:22:36;;;;;;;1.40;1.10;;;;;;;18.46;76.53;95263.06;5078397;28;20229;-81
2022/06/09 07:25:03;;;;;;;1.13;1.13;;;;;;;18.60;76.29;95266.97;5079397;28;20697;-81
2022/06/09 07:27:30;;;;;;;1.85;1.10;;;;;;;18.79;75.82;95264.97;5077941;28;20752;-82
2022/06/09 07:29:57;;;;;;;2.15;1.17;;;;;;;18.88;74.23;95255.69;5078876;28;20215;-81
2022/06/09 07:32:23;;;;;;;1.17;1.17;;;;;;;18.92;74.48;95262.81;5078212;28;20228;-83
2022/06/09 07:34:50;;;;;;;1.30;1.08;;;;;;;18.88;72.97;95264.31;5083834;28;20217;-82
2022/06/09 07:37:17;;;;;;;1.30;1.08;;;;;;;18.82;73.04;95265.28;5076781;28;20205;-81
2022/06/09 07:39:45;;;;;;;0.80;0.80;;;;;;;18.73;72.96;95261.47;5077794;28;20220;-82
2022/06/09 07:42:12;;;;;;;0.80;0.80;;;;;;;18.70;72.18;95269.75;5076949;28;20235;-82
2022/06/09 07:44:39;;;;;;;1.00;1.00;;;;;;;18.59;71.49;95274.00;5082170;28;20205;-80
2022/06/09 07:47:06;;;;;;;1.52;1.40;;;;;;;18.45;72.12;95280.50;5081590;28;20626;-80
2022/06/09 07:49:33;;;;;;;8.18;6.07;;;;;;;18.13;73.98;95271.53;5081530;28;20832;-80
2022/06/09 07:52:00;;;;;;;1.65;1.10;;;;;;;17.61;76.01;95287.91;5080984;28;20211;-80
2022/06/09 07:54:27;;;;;;;1.13;1.02;;;;;;;17.35;77.97;95290.94;5081515;28;20490;-80
2022/06/09 07:56:54;;;;;;;1.40;1.13;;;;;;;17.14;80.50;95294.88;5081548;28;20246;-80
2022/06/09 07:59:21;;;;;;;2.35;1.80;;;;;;;16.96;80.13;95299.38;5080509;28;20228;-79
2022/06/09 08:01:47;;;;;;;1.60;1.20;;;;;;;16.80;81.43;95306.78;5080701;28;20287;-79
2022/06/09 08:04:15;;;;;;;2.72;1.50;;;;;;;16.86;82.10;95318.13;5081090;28;20201;-79
2022/06/09 08:06:42;;;;;;;2.15;1.52;;;;;;;16.78;82.69;95321.81;5082023;28;20238;-79
2022/06/09 08:09:09;;;;;;;1.67;1.40;;;;;;;16.82;82.56;95328.16;5080545;28;20224;-80
2022/06/09 08:11:38;;;;;;;4.50;1.52;;;;;;;16.97;82.35;95326.97;5080703;28;20201;-79
2022/06/09 08:14:07;;;;;;;1.80;1.70;;;;;;;16.96;83.09;95317.56;5080377;28;20224;-80
2022/06/09 08:16:34;;;;;;;2.53;1.52;;;;;;;16.98;83.16;95334.53;5080950;28;20274;-80
2022/06/09 08:19:01;;;;;;;3.10;1.65;;;;;;;17.08;84.65;95328.81;5080505;28;20231;-80
2022/06/09 08:21:28;;;;;;;2.70;1.40;;;;;;;17.17;83.43;95337.88;5081161;28;20205;-80
2022/06/09 08:23:55;;;;;;;1.88;1.70;;;;;;;17.21;84.50;95329.41;5080420;28;20237;-79
2022/06/09 08:26:21;;;;;;;2.15;1.50;;;;;;;17.27;84.38;95335.53;5081199;28;20193;-80
2022/06/09 08:28:48;;;;;;;2.80;1.60;;;;;;;17.25;84.21;95334.94;5080171;28;20228;-79
2022/06/09 08:31:16;;;;;;;3.20;1.75;;;;;;;17.24;86.81;95341.97;5080436;28;20204;-80
2022/06/09 08:33:42;;;;;;;2.90;1.88;;;;;;;17.30;85.46;95337.69;5078491;28;20233;-80
2022/06/09 08:36:10;;;;;;;2.53;1.60;;;;;;;17.28;86.48;95347.53;5079199;28;20278;-80
2022/06/09 08:38:36;;;;;;;2.88;1.73;;;;;;;17.23;86.08;95342.19;5078502;28;20221;-80
2022/06/09 08:41:17;;;;;;;3.30;2.00;;;;;;;17.22;85.29;95348.41;5078112;28;20226;-80
2022/06/09 08:43:48;;;;;;;1.98;1.65;;;;;;;17.11;84.92;95354.38;5079390;28;20236;-80
2022/06/09 08:46:25;;;;;;;3.53;1.73;;;;;;;17.06;86.34;95360.25;5078841;28;20205;-80
2022/06/09 08:48:55;;;;;;;12.93;11.32;;;;;;;17.11;85.57;95362.19;5077976;28;20231;-80
2022/06/09 08:51:34;;;;;;;17.85;15.68;;;;;;;17.16;85.76;95360.50;5077595;28;20205;-80
2022/06/09 08:54:09;;;;;;;3.60;3.00;;;;;;;17.11;86.08;95370.00;5078492;28;20251;-80
2022/06/09 08:56:36;;;;;;;2.45;1.90;;;;;;;17.11;85.61;95372.59;5079478;28;20224;-81
2022/06/09 08:59:12;;;;;;;1.75;1.50;;;;;;;17.13;86.27;95373.94;5079266;28;20274;-80
2022/06/09 09:01:46;;;;;;;1.92;1.52;;;;;;;17.15;84.58;95373.72;5079832;28;20438;-80
2022/06/09 09:04:19;;;;;;;2.22;1.67;;;;;;;17.29;84.85;95380.34;5079670;28;20220;-80
2022/06/09 09:06:50;;;;;;;4.28;1.65;;;;;;;17.42;84.83;95380.13;5080152;28;20230;-80
2022/06/09 09:09:22;;;;;;;2.53;1.70;;;;;;;17.52;84.74;95379.56;5080261;28;20216;-80
2022/06/09 09:12:00;;;;;;;3.28;1.98;;;;;;;17.56;85.79;95376.28;5080117;28;20722;-79
2022/06/09 09:14:30;;;;;;;2.00;1.70;;;;;;;17.67;83.63;95374.75;5080749;28;20235;-80
2022/06/09 09:17:09;;;;;;;4.72;2.10;;;;;;;17.70;83.90;95379.53;5081489;28;20239;-80
2022/06/09 09:19:48;;;;;;;5.35;2.03;;;;;;;17.69;83.41;95388.34;5081001;28;20220;-80
2022/06/09 09:22:23;;;;;;;5.70;1.60;;;;;;;17.67;83.18;95385.19;5081426;28;20235;-79
2022/06/09 09:25:01;;;;;;;2.65;1.75;;;;;;;17.67;85.04;95384.38;5082132;28;20230;-79
2022/06/09 09:27:34;;;;;;;2.40;1.55;;;;;;;17.71;88.28;95391.50;5081410;28;20222;-79
2022/06/09 09:30:12;;;;;;;2.53;1.60;;;;;;;17.86;83.25;95391.06;5082076;28;20219;-79
2022/06/09 09:32:43;;;;;;;2.70;1.60;;;;;;;17.92;80.14;95390.16;5081961;28;20235;-79
2022/06/09 09:35:14;;;;;;;5.43;1.88;;;;;;;18.01;80.44;95382.81;5068123;28;20220;-79
2022/06/09 09:37:46;;;;;;;2.45;1.90;;;;;;;18.00;79.66;95387.22;5067979;28;20198;-79
2022/06/09 09:40:24;;;;;;;2.80;1.80;;;;;;;18.10;80.44;95391.84;5066710;28;20215;-78
2022/06/09 09:42:54;;;;;;;3.28;1.90;;;;;;;18.12;82.05;95395.00;5066777;28;20282;-79
2022/06/09 09:45:30;;;;;;;2.78;2.10;;;;;;;18.19;81.46;95396.50;5079572;28;20198;-79
2022/06/09 09:48:01;;;;;;;4.13;1.90;;;;;;;18.04;77.68;95398.78;5066265;28;20240;-79
2022/06/09 09:50:35;;;;;;;6.43;2.15;;;;;;;18.08;79.07;95393.91;5064753;28;20232;-79
2022/06/09 09:53:05;;;;;;;2.83;1.80;;;;;;;18.23;80.39;95397.63;5066311;28;20240;-80
2022/06/09 09:55:35;;;;;;;3.30;1.98;;;;;;;18.17;81.77;95402.94;5081550;28;20244;-79
2022/06/09 09:58:25;;;;;;;2.75;2.15;;;;;;;18.11;83.39;95407.25;5087008;28;20232;-79
2022/06/09 10:00:55;;;;;;;3.97;2.83;;;;;;;18.07;82.65;95408.75;5082645;28;20436;-79
2022/06/09 10:09:14;;;;;;;3.58;1.80;;;;;;;17.46;80.31;95443.75;5087483;28;20266;-78
2022/06/09 10:11:58;;;;;;;4.03;1.30;;;;;;;17.32;78.41;95452.72;5085857;28;20200;-80
2022/06/09 10:14:47;;;;;;;1.98;1.30;;;;;;;17.23;79.42;95448.88;5070208;28;20227;-79
2022/06/09 10:17:37;;;;;;;2.22;1.40;;;;;;;17.10;79.72;95436.84;5064297;28;20243;-80
2022/06/09 10:20:29;;;;;;;3.53;1.70;;;;;;;17.03;81.01;95441.31;5063576;28;20213;-79
2022/06/09 10:22:59;;;;;;;2.78;1.40;;;;;;;17.10;78.87;95447.25;5062332;28;20770;-82
2022/06/09 10:25:30;;;;;;;1.67;1.58;;;;;;;17.11;81.56;95445.44;5060473;28;20198;-81
2022/06/09 10:28:02;;;;;;;2.97;1.92;;;;;;;17.15;82.66;95443.97;5060330;28;20226;-81
2022/06/09 10:30:33;;;;;;;4.90;1.85;;;;;;;17.19;82.14;95445.13;5059961;28;20634;-81
2022/06/09 10:33:05;;;;;;;2.75;1.70;;;;;;;17.21;80.54;95441.28;5061090;28;20233;-82
2022/06/09 10:35:41;;;;;;;2.63;1.45;;;;;;;17.22;80.03;95439.47;5062217;28;20232;-82
2022/06/09 10:38:18;;;;;;;2.70;1.50;;;;;;;17.26;80.22;95440.63;5061778;28;20225;-81
2022/06/09 10:40:48;;;;;;;2.10;1.40;;;;;;;17.32;79.54;95446.75;5060874;28;20204;-82
2022/06/09 10:43:21;;;;;;;4.05;2.10;;;;;;;17.34;79.54;95442.91;5060815;28;20244;-81
2022/06/09 10:45:54;;;;;;;4.43;1.88;;;;;;;17.36;79.22;95438.28;5062102;28;20197;-82
2022/06/09 10:57:15;;;;;;;5.53;2.08;;;;;;;17.38;78.97;95436.25;5061740;28;20587;-81
2022/06/09 10:59:47;;;;;;;3.03;1.73;;;;;;;17.36;78.36;95440.88;5060873;28;20807;-81
2022/06/09 11:02:17;;;;;;;3.42;1.88;;;;;;;17.38;78.38;95433.63;5060148;28;20712;-82
2022/06/09 11:04:45;;;;;;;2.35;1.73;;;;;;;17.52;78.60;95439.44;5059909;28;20224;-82
2022/06/09 11:07:34;;;;;;;2.85;2.30;;;;;;;17.63;80.10;95441.28;5060534;28;20201;-82
2022/06/09 11:10:13;;;;;;;2.35;1.65;;;;;;;17.77;81.57;95436.69;5059596;28;20263;-80
2022/06/09 11:12:50;;;;;;;3.70;1.90;;;;;;;17.98;78.40;95438.75;5062254;28;20225;-82
2022/06/09 11:15:27;;;;;;;2.70;1.83;;;;;;;18.16;78.07;95438.63;5039095;28;20313;-81
2022/06/09 11:18:04;;;;;;;4.55;2.10;;;;;;;18.28;79.54;95443.84;5040532;28;20249;-83
2022/06/09 11:20:45;;;;;;;2.90;1.70;;;;;;;18.39;77.12;95442.25;5039751;28;20214;-81
2022/06/09 11:23:22;;;;;;;2.97;1.70;;;;;;;18.50;75.38;95436.22;5042734;28;20382;-82
2022/06/09 11:25:56;;;;;;;3.65;1.70;;;;;;;18.69;77.01;95435.09;5042858;28;20271;-82
2022/06/09 11:28:40;;;;;;;5.40;4.00;;;;;;;18.83;75.70;95426.00;5040541;28;20255;-82
2022/06/09 11:31:17;;;;;;;3.10;2.00;;;;;;;18.69;69.77;95431.69;5051010;28;20232;-82
2022/06/09 11:34:03;;;;;;;2.65;1.63;;;;;;;18.71;72.18;95430.44;5058633;28;20229;-83
2022/06/09 11:36:35;;;;;;;2.85;1.45;;;;;;;18.77;72.51;95439.16;5059233;28;20228;-82
2022/06/09 11:39:21;;;;;;;2.30;1.38;;;;;;;18.97;72.48;95421.28;5059333;28;20314;-82
2022/06/09 11:41:54;;;;;;;3.38;1.40;;;;;;;18.92;72.72;95432.41;5039631;28;20221;-82
2022/06/09 11:44:26;;;;;;;4.00;1.40;;;;;;;18.93;72.61;95431.41;5039224;28;20275;-82
2022/06/09 11:46:55;;;;;;;2.47;1.42;;;;;;;18.71;71.24;95443.47;5039578;28;20203;-82
2022/06/09 11:49:27;;;;;;;1.65;1.10;;;;;;;18.67;72.12;95441.56;5039147;28;20222;-82
2022/06/09 11:51:54;;;;;;;3.45;1.40;;;;;;;18.64;73.31;95445.44;5038503;28;20264;-82
2022/06/09 11:54:39;;;;;;;2.03;1.00;;;;;;;18.60;66.21;95432.06;5038182;28;20198;-82
2022/06/09 11:57:41;;;;;;;2.22;1.15;;;;;;;18.58;66.31;95441.91;5036894;28;20313;-82
2022/06/09 12:00:38;;;;;;;2.35;1.00;;;;;;;18.66;68.27;95442.59;5037594;28;20241;-82
2022/06/09 12:03:41;;;;;;;1.67;0.95;;;;;;;18.79;68.81;95434.50;5038236;28;20230;-82
2022/06/09 12:06:17;;;;;;;2.05;1.25;;;;;;;18.73;69.00;95448.47;5034819;28;20198;-82
2022/06/09 12:08:55;;;;;;;1.90;1.10;;;;;;;18.49;68.12;95455.50;5038319;28;20233;-82
2022/06/09 12:11:26;;;;;;;3.20;1.23;;;;;;;18.32;69.03;95459.81;5037689;28;20256;-83
2022/06/09 12:14:10;;;;;;;1.73;1.20;;;;;;;18.32;69.14;95462.44;5045310;28;20932;-82
2022/06/09 12:16:40;;;;;;;2.63;1.00;;;;;;;18.13;68.42;95466.97;5056439;28;20221;-83